Aroma, Indiana
Current Conditions -  °F | °C
As of 5:15 AM on Thursday 18 Dec 2014 (Local Time) from KTYQ Reporting Station
Overcast Overcast  
Wind Chill: 19°   Ceiling: 1700
Heat Index: 25°   Visibility: 10mi
Dew Point: 18°   Wind: 5mph
Humidity: 75%   Direction: 270°W
Pressure: 30.27"   Gusts: NA
Location:  40.1832°N, 85.9359°W
Report Text: KTYQ 181015Z AUTO 27004KT 10SM OVC017 M04/M08 A3027 RMK AO2 T10381077
Loading
Personal Weather Stations






























Interactive Weather Map New forecast layout! Learn more

10-Day Weather Forecast

Advertisements
Track Severe Weather on mobile